PWSweather.com
Personal Weather Stations
Station Observations

ChardChardGB

Lat: 50.877408, Lon: -2.94964741

Elevation: 341

Station Type: WS3083

http://www.merriott-astro.co.uk/weather/index.htm

High Low Average
Temperature 55.2°F12.9°C 32.0°F0.0°C 52.4°F11.3°C
Dew Point 48.2°F9.0°C 40.1°F4.5°C 44.0°F6.7°C
Winds 19.0 mph 30.6 kmh Calm Calm 14.0 mph SSW22.5 kmh SSW
Wind Gusts 25.9 mph41.7 kmh -- 19.0 mph30.6 kmh
Humidity 84% 0% 72%
Pressure 30.25 in1024.4 mb 30.03 in1016.9 mb -
Precipitation 0.09 in2.3 mm - -
Hour Temp Dew Point Humidity Winds Wind Gusts Pressure Precip Precip Rate Daily Precip Total
12:00 AM 51.3°F10.7°C 40.3°F4.6°C 66% 15.1 mph SSW24.3 kmh SSW 18.3 mph29.5 kmh 30.03 in1016.9 mb 0.00 in0.0 mm 0.00 in0.0 mm 0.00 in0.0 mm
12:10 AM 51.1°F10.6°C 40.5°F4.7°C 67% 12.4 mph S20.0 kmh S 19.0 mph30.6 kmh 30.04 in1017.3 mb 0.00 in0.0 mm 0.00 in0.0 mm 0.00 in0.0 mm
12:20 AM 51.1°F10.6°C 40.5°F4.7°C 67% 11.2 mph SSE18.0 kmh SSE 17.4 mph28.0 kmh 30.03 in1016.9 mb 0.00 in0.0 mm 0.00 in0.0 mm 0.00 in0.0 mm
12:30 AM 51.1°F10.6°C 40.5°F4.7°C 67% 12.4 mph SSW20.0 kmh SSW 17.4 mph28.0 kmh 30.04 in1017.3 mb 0.00 in0.0 mm 0.00 in0.0 mm 0.00 in0.0 mm
12:40 AM 50.9°F10.5°C 41.1°F5.1°C 69% 12.6 mph SW20.3 kmh SW 16.8 mph27.0 kmh 30.04 in1017.3 mb 0.00 in0.0 mm 0.00 in0.0 mm 0.00 in0.0 mm
12:50 AM 50.9°F10.5°C 41.5°F5.3°C 70% 12.4 mph SSW20.0 kmh SSW 17.4 mph28.0 kmh 30.04 in1017.3 mb 0.00 in0.0 mm 0.00 in0.0 mm 0.00 in0.0 mm
01:00 AM 50.7°F10.4°C 41.3°F5.2°C 70% 10.8 mph S17.4 kmh S 13.6 mph21.9 kmh 30.04 in1017.3 mb 0.00 in0.0 mm 0.00 in0.0 mm 0.00 in0.0 mm
01:10 AM 50.7°F10.4°C 41.3°F5.2°C 70% 12.2 mph SSW19.6 kmh SSW 18.3 mph29.5 kmh 30.04 in1017.3 mb 0.00 in0.0 mm 0.00 in0.0 mm 0.00 in0.0 mm
01:20 AM 50.5°F10.3°C 41.1°F5.1°C 70% 12.7 mph SSW20.4 kmh SSW 21.3 mph34.3 kmh 30.04 in1017.3 mb 0.00 in0.0 mm 0.00 in0.0 mm 0.00 in0.0 mm
01:30 AM 50.5°F10.3°C 41.1°F5.1°C 70% 12.6 mph S20.3 kmh S 18.3 mph29.5 kmh 30.04 in1017.3 mb 0.00 in0.0 mm 0.00 in0.0 mm 0.00 in0.0 mm
01:40 AM 50.5°F10.3°C 41.5°F5.3°C 71% 12.3 mph SSW19.8 kmh SSW 19.0 mph30.6 kmh 30.04 in1017.3 mb 0.00 in0.0 mm 0.00 in0.0 mm 0.00 in0.0 mm
01:50 AM 50.5°F10.3°C 41.5°F5.3°C 71% 13.4 mph S21.6 kmh S 18.3 mph29.5 kmh 30.04 in1017.3 mb 0.00 in0.0 mm 0.00 in0.0 mm 0.00 in0.0 mm
02:00 AM 50.5°F10.3°C 41.5°F5.3°C 71% 12.5 mph SSW20.1 kmh SSW 16.8 mph27.0 kmh 30.04 in1017.3 mb 0.00 in0.0 mm 0.00 in0.0 mm 0.00 in0.0 mm
02:10 AM 50.5°F10.3°C 41.5°F5.3°C 71% 15.8 mph SSW25.4 kmh SSW 20.6 mph33.2 kmh 30.04 in1017.3 mb 0.00 in0.0 mm 0.00 in0.0 mm 0.00 in0.0 mm
02:20 AM 50.4°F10.2°C 41.3°F5.2°C 71% 12.8 mph S20.6 kmh S 15.2 mph24.5 kmh 30.05 in1017.6 mb 0.00 in0.0 mm 0.00 in0.0 mm 0.00 in0.0 mm
02:30 AM 50.4°F10.2°C 41.3°F5.2°C 71% 11.3 mph S18.2 kmh S 15.9 mph25.6 kmh 30.04 in1017.3 mb 0.00 in0.0 mm 0.00 in0.0 mm 0.00 in0.0 mm
02:40 AM 50.4°F10.2°C 41.3°F5.2°C 71% 12.2 mph S19.6 kmh S 17.4 mph28.0 kmh 30.04 in1017.3 mb 0.00 in0.0 mm 0.00 in0.0 mm 0.00 in0.0 mm
02:50 AM 50.2°F10.1°C 41.5°F5.3°C 72% 12.6 mph SSW20.3 kmh SSW 17.4 mph28.0 kmh 30.04 in1017.3 mb 0.00 in0.0 mm 0.00 in0.0 mm 0.00 in0.0 mm
03:00 AM 50.2°F10.1°C 41.5°F5.3°C 72% 10.5 mph SSW16.9 kmh SSW 15.9 mph25.6 kmh 30.05 in1017.6 mb 0.00 in0.0 mm 0.00 in0.0 mm 0.00 in0.0 mm
03:10 AM 50.0°F10.0°C 41.3°F5.2°C 72% 10.7 mph SW17.2 kmh SW 18.3 mph29.5 kmh 30.04 in1017.3 mb 0.00 in0.0 mm 0.00 in0.0 mm 0.00 in0.0 mm
03:20 AM 50.2°F10.1°C 41.5°F5.3°C 72% 11.7 mph S18.8 kmh S 18.3 mph29.5 kmh 30.05 in1017.6 mb 0.00 in0.0 mm 0.00 in0.0 mm 0.00 in0.0 mm
03:30 AM 50.5°F10.3°C 41.5°F5.3°C 71% 12.3 mph S19.8 kmh S 15.2 mph24.5 kmh 30.04 in1017.3 mb 0.00 in0.0 mm 0.00 in0.0 mm 0.00 in0.0 mm
03:40 AM 50.7°F10.4°C 41.7°F5.4°C 71% 11.7 mph SSW18.8 kmh SSW 19.7 mph31.7 kmh 30.04 in1017.3 mb 0.00 in0.0 mm 0.00 in0.0 mm 0.00 in0.0 mm
03:50 AM 50.7°F10.4°C 41.3°F5.2°C 70% 10.7 mph S17.2 kmh S 14.5 mph23.3 kmh 30.04 in1017.3 mb 0.00 in0.0 mm 0.00 in0.0 mm 0.00 in0.0 mm
04:00 AM 50.7°F10.4°C 41.3°F5.2°C 70% 10.0 mph S16.1 kmh S 15.2 mph24.5 kmh 30.03 in1016.9 mb 0.00 in0.0 mm 0.00 in0.0 mm 0.00 in0.0 mm
04:10 AM 50.7°F10.4°C 41.3°F5.2°C 70% 12.3 mph SW19.8 kmh SW 16.8 mph27.0 kmh 30.03 in1016.9 mb 0.00 in0.0 mm 0.00 in0.0 mm 0.00 in0.0 mm
04:20 AM 50.9°F10.5°C 41.5°F5.3°C 70% 15.4 mph S24.8 kmh S 20.6 mph33.2 kmh 30.03 in1016.9 mb 0.00 in0.0 mm 0.00 in0.0 mm 0.00 in0.0 mm
04:30 AM 50.9°F10.5°C 41.5°F5.3°C 70% 13.7 mph SSW22.0 kmh SSW 19.0 mph30.6 kmh 30.03 in1016.9 mb 0.00 in0.0 mm 0.00 in0.0 mm 0.00 in0.0 mm
04:40 AM 50.9°F10.5°C 41.5°F5.3°C 70% 16.2 mph S26.1 kmh S 20.6 mph33.2 kmh 30.03 in1016.9 mb 0.00 in0.0 mm 0.00 in0.0 mm 0.00 in0.0 mm
04:50 AM 51.1°F10.6°C 41.3°F5.2°C 69% 15.4 mph SSW24.8 kmh SSW 19.7 mph31.7 kmh 30.04 in1017.3 mb 0.00 in0.0 mm 0.00 in0.0 mm 0.00 in0.0 mm
05:00 AM 51.1°F10.6°C 40.5°F4.7°C 67% 14.7 mph SW23.7 kmh SW 19.0 mph30.6 kmh 30.04 in1017.3 mb 0.00 in0.0 mm 0.00 in0.0 mm 0.00 in0.0 mm
05:10 AM 51.3°F10.7°C 40.7°F4.8°C 67% 14.4 mph SSW23.2 kmh SSW 21.3 mph34.3 kmh 30.04 in1017.3 mb 0.00 in0.0 mm 0.00 in0.0 mm 0.00 in0.0 mm
05:20 AM 51.3°F10.7°C 40.7°F4.8°C 67% 12.2 mph SSW19.6 kmh SSW 16.8 mph27.0 kmh 30.04 in1017.3 mb 0.00 in0.0 mm 0.00 in0.0 mm 0.00 in0.0 mm
05:30 AM 51.3°F10.7°C 40.3°F4.6°C 66% 15.0 mph SW24.1 kmh SW 19.7 mph31.7 kmh 30.04 in1017.3 mb 0.00 in0.0 mm 0.00 in0.0 mm 0.00 in0.0 mm
05:40 AM 51.3°F10.7°C 40.3°F4.6°C 66% 14.7 mph SW23.7 kmh SW 21.3 mph34.3 kmh 30.04 in1017.3 mb 0.00 in0.0 mm 0.00 in0.0 mm 0.00 in0.0 mm
05:50 AM 51.4°F10.8°C 40.1°F4.5°C 65% 13.7 mph S22.0 kmh S 15.2 mph24.5 kmh 30.05 in1017.6 mb 0.00 in0.0 mm 0.00 in0.0 mm 0.00 in0.0 mm
06:00 AM 51.6°F10.9°C 40.2°F4.6°C 65% 13.9 mph SW22.4 kmh SW 19.7 mph31.7 kmh 30.05 in1017.6 mb 0.00 in0.0 mm 0.00 in0.0 mm 0.00 in0.0 mm
06:10 AM 51.6°F10.9°C 40.2°F4.6°C 65% 12.4 mph S20.0 kmh S 18.3 mph29.5 kmh 30.05 in1017.6 mb 0.00 in0.0 mm 0.00 in0.0 mm 0.00 in0.0 mm
06:20 AM 51.6°F10.9°C 40.2°F4.6°C 65% 15.4 mph S24.8 kmh S 21.3 mph34.3 kmh 30.05 in1017.6 mb 0.00 in0.0 mm 0.00 in0.0 mm 0.00 in0.0 mm
06:30 AM 51.6°F10.9°C 40.2°F4.6°C 65% 14.4 mph SSW23.2 kmh SSW 19.7 mph31.7 kmh 30.05 in1017.6 mb 0.00 in0.0 mm 0.00 in0.0 mm 0.00 in0.0 mm
06:40 AM 51.6°F10.9°C 40.2°F4.6°C 65% 15.3 mph S24.6 kmh S 21.3 mph34.3 kmh 30.06 in1017.9 mb 0.00 in0.0 mm 0.00 in0.0 mm 0.00 in0.0 mm
06:50 AM 51.8°F11.0°C 40.8°F4.9°C 66% 13.9 mph S22.4 kmh S 21.3 mph34.3 kmh 30.07 in1018.3 mb 0.00 in0.0 mm 0.00 in0.0 mm 0.00 in0.0 mm
07:00 AM 52.0°F11.1°C 41.0°F5.0°C 66% 13.7 mph SSW22.0 kmh SSW 17.4 mph28.0 kmh 30.06 in1017.9 mb 0.00 in0.0 mm 0.00 in0.0 mm 0.00 in0.0 mm
07:10 AM 52.2°F11.2°C 41.2°F5.1°C 66% 14.6 mph SW23.5 kmh SW 21.3 mph34.3 kmh 30.06 in1017.9 mb 0.00 in0.0 mm 0.00 in0.0 mm 0.00 in0.0 mm
07:20 AM 52.3°F11.3°C 40.9°F4.9°C 65% 16.0 mph SSW25.7 kmh SSW 23.5 mph37.8 kmh 30.06 in1017.9 mb 0.00 in0.0 mm 0.00 in0.0 mm 0.00 in0.0 mm
07:30 AM 52.7°F11.5°C 41.3°F5.2°C 65% 12.8 mph S20.6 kmh S 19.7 mph31.7 kmh 30.07 in1018.3 mb 0.00 in0.0 mm 0.00 in0.0 mm 0.00 in0.0 mm
07:40 AM 52.9°F11.6°C 41.4°F5.2°C 65% 14.1 mph SSW22.7 kmh SSW 17.4 mph28.0 kmh 30.06 in1017.9 mb 0.00 in0.0 mm 0.00 in0.0 mm 0.00 in0.0 mm
07:50 AM 52.7°F11.5°C 41.3°F5.2°C 65% 13.7 mph S22.0 kmh S 17.4 mph28.0 kmh 30.07 in1018.3 mb 0.00 in0.0 mm 0.00 in0.0 mm 0.00 in0.0 mm
08:00 AM 52.9°F11.6°C 41.4°F5.2°C 65% 14.1 mph SW22.7 kmh SW 19.0 mph30.6 kmh 30.08 in1018.6 mb 0.00 in0.0 mm 0.00 in0.0 mm 0.00 in0.0 mm
08:10 AM 52.9°F11.6°C 41.4°F5.2°C 65% 15.1 mph SW24.3 kmh SW 22.1 mph35.6 kmh 30.07 in1018.3 mb 0.00 in0.0 mm 0.00 in0.0 mm 0.00 in0.0 mm
08:20 AM 53.1°F11.7°C 41.6°F5.3°C 65% 17.8 mph SSW28.6 kmh SSW 22.8 mph36.7 kmh 30.07 in1018.3 mb 0.00 in0.0 mm 0.00 in0.0 mm 0.00 in0.0 mm
08:30 AM 53.6°F12.0°C 42.1°F5.6°C 65% 16.7 mph SW26.9 kmh SW 20.6 mph33.2 kmh 30.08 in1018.6 mb 0.00 in0.0 mm 0.00 in0.0 mm 0.00 in0.0 mm
08:40 AM 54.0°F12.2°C 42.5°F5.8°C 65% 16.6 mph SSW26.7 kmh SSW 25.9 mph41.7 kmh 30.08 in1018.6 mb 0.00 in0.0 mm 0.00 in0.0 mm 0.00 in0.0 mm
08:50 AM 53.6°F12.0°C 42.1°F5.6°C 65% 13.7 mph S22.0 kmh S 18.3 mph29.5 kmh 30.09 in1019.0 mb 0.00 in0.0 mm 0.00 in0.0 mm 0.00 in0.0 mm
09:00 AM 53.6°F12.0°C 42.5°F5.8°C 66% 16.7 mph SSW26.9 kmh SSW 21.3 mph34.3 kmh 30.09 in1019.0 mb 0.00 in0.0 mm 0.00 in0.0 mm 0.00 in0.0 mm
09:10 AM 54.1°F12.3°C 43.4°F6.3°C 67% 18.7 mph S30.1 kmh S 25.9 mph41.7 kmh 30.09 in1019.0 mb 0.00 in0.0 mm 0.00 in0.0 mm 0.00 in0.0 mm
09:20 AM 54.9°F12.7°C 42.5°F5.8°C 63% 14.5 mph SW23.3 kmh SW 20.6 mph33.2 kmh 30.09 in1019.0 mb 0.00 in0.0 mm 0.00 in0.0 mm 0.00 in0.0 mm
09:30 AM 55.2°F12.9°C 42.4°F5.8°C 62% 14.1 mph SW22.7 kmh SW 16.8 mph27.0 kmh 30.10 in1019.3 mb 0.00 in0.0 mm 0.00 in0.0 mm 0.00 in0.0 mm
09:40 AM 55.2°F12.9°C 42.4°F5.8°C 62% 18.2 mph SSW29.3 kmh SSW 23.5 mph37.8 kmh 30.10 in1019.3 mb 0.00 in0.0 mm 0.00 in0.0 mm 0.00 in0.0 mm
09:50 AM 55.0°F12.8°C 42.3°F5.7°C 62% 15.6 mph S25.1 kmh S 20.6 mph33.2 kmh 30.10 in1019.3 mb 0.00 in0.0 mm 0.00 in0.0 mm 0.00 in0.0 mm
10:00 AM 54.7°F12.6°C 42.3°F5.7°C 63% 12.2 mph SSW19.6 kmh SSW 21.3 mph34.3 kmh 30.11 in1019.6 mb 0.00 in0.0 mm 0.00 in0.0 mm 0.00 in0.0 mm
10:10 AM 54.3°F12.4°C 44.0°F6.7°C 68% 15.8 mph SW25.4 kmh SW 19.7 mph31.7 kmh 30.11 in1019.6 mb 0.00 in0.0 mm 0.00 in0.0 mm 0.00 in0.0 mm
10:20 AM 54.3°F12.4°C 44.0°F6.7°C 68% 14.3 mph S23.0 kmh S 22.8 mph36.7 kmh 30.10 in1019.3 mb 0.00 in0.0 mm 0.00 in0.0 mm 0.00 in0.0 mm
10:30 AM 54.3°F12.4°C 44.0°F6.7°C 68% 13.0 mph SW20.9 kmh SW 18.3 mph29.5 kmh 30.11 in1019.6 mb 0.00 in0.0 mm 0.00 in0.0 mm 0.00 in0.0 mm
10:40 AM 54.1°F12.3°C 44.2°F6.8°C 69% 15.8 mph SSE25.4 kmh SSE 20.6 mph33.2 kmh 30.12 in1020.0 mb 0.00 in0.0 mm 0.00 in0.0 mm 0.00 in0.0 mm
10:50 AM 54.1°F12.3°C 44.2°F6.8°C 69% 15.1 mph S24.3 kmh S 20.6 mph33.2 kmh 30.12 in1020.0 mb 0.00 in0.0 mm 0.00 in0.0 mm 0.00 in0.0 mm
11:00 AM 54.1°F12.3°C 44.6°F7.0°C 70% 16.0 mph S25.7 kmh S 22.8 mph36.7 kmh 30.13 in1020.3 mb 0.00 in0.0 mm 0.00 in0.0 mm 0.00 in0.0 mm
11:10 AM 54.0°F12.2°C 44.4°F6.9°C 70% 13.3 mph SW21.4 kmh SW 16.8 mph27.0 kmh 30.13 in1020.3 mb 0.00 in0.0 mm 0.00 in0.0 mm 0.00 in0.0 mm
11:20 AM 53.6°F12.0°C 44.1°F6.7°C 70% 12.5 mph S20.1 kmh S 19.0 mph30.6 kmh 30.13 in1020.3 mb 0.00 in0.0 mm 0.00 in0.0 mm 0.00 in0.0 mm
11:30 AM 53.8°F12.1°C 44.6°F7.0°C 71% 16.5 mph SSW26.6 kmh SSW 21.3 mph34.3 kmh 30.13 in1020.3 mb 0.00 in0.0 mm 0.00 in0.0 mm 0.00 in0.0 mm
11:40 AM 54.5°F12.5°C 43.8°F6.6°C 67% 12.5 mph SSW20.1 kmh SSW 19.7 mph31.7 kmh 30.13 in1020.3 mb 0.00 in0.0 mm 0.00 in0.0 mm 0.00 in0.0 mm
11:50 AM 54.1°F12.3°C 45.0°F7.2°C 71% 14.7 mph SW23.7 kmh SW 19.0 mph30.6 kmh 30.14 in1020.7 mb 0.00 in0.0 mm 0.00 in0.0 mm 0.00 in0.0 mm
12:00 PM 53.8°F12.1°C 45.0°F7.2°C 72% 15.4 mph S24.8 kmh S 19.0 mph30.6 kmh 30.14 in1020.7 mb 0.00 in0.0 mm 0.00 in0.0 mm 0.00 in0.0 mm
12:10 PM 54.0°F12.2°C 45.1°F7.3°C 72% 14.6 mph SSW23.5 kmh SSW 17.4 mph28.0 kmh 30.14 in1020.7 mb 0.00 in0.0 mm 0.00 in0.0 mm 0.00 in0.0 mm
12:20 PM 54.5°F12.5°C 44.5°F6.9°C 69% 15.7 mph S25.3 kmh S 20.6 mph33.2 kmh 30.14 in1020.7 mb 0.00 in0.0 mm 0.00 in0.0 mm 0.00 in0.0 mm
12:30 PM 54.5°F12.5°C 44.5°F6.9°C 69% 14.4 mph SSW23.2 kmh SSW 22.8 mph36.7 kmh 30.15 in1021.0 mb 0.00 in0.0 mm 0.00 in0.0 mm 0.00 in0.0 mm
12:40 PM 54.7°F12.6°C 44.7°F7.1°C 69% 13.3 mph SSW21.4 kmh SSW 17.4 mph28.0 kmh 30.14 in1020.7 mb 0.00 in0.0 mm 0.00 in0.0 mm 0.00 in0.0 mm
12:50 PM 54.7°F12.6°C 44.7°F7.1°C 69% 14.6 mph SSW23.5 kmh SSW 18.3 mph29.5 kmh 30.15 in1021.0 mb 0.00 in0.0 mm 0.00 in0.0 mm 0.00 in0.0 mm
01:00 PM 54.7°F12.6°C 45.1°F7.3°C 70% 14.6 mph SSW23.5 kmh SSW 17.4 mph28.0 kmh 30.15 in1021.0 mb 0.00 in0.0 mm 0.00 in0.0 mm 0.00 in0.0 mm
01:10 PM 54.1°F12.3°C 46.0°F7.8°C 74% 14.8 mph SSW23.8 kmh SSW 19.0 mph30.6 kmh 30.15 in1021.0 mb 0.00 in0.0 mm 0.00 in0.0 mm 0.00 in0.0 mm
01:20 PM 53.8°F12.1°C 46.4°F8.0°C 76% 14.4 mph SSW23.2 kmh SSW 20.6 mph33.2 kmh 30.16 in1021.3 mb 0.00 in0.0 mm 0.00 in0.0 mm 0.00 in0.0 mm
01:30 PM 53.8°F12.1°C 46.7°F8.2°C 77% 14.8 mph SW23.8 kmh SW 19.0 mph30.6 kmh 30.16 in1021.3 mb 0.00 in0.0 mm 0.00 in0.0 mm 0.00 in0.0 mm
01:40 PM 53.6°F12.0°C 46.9°F8.3°C 78% 15.3 mph SSW24.6 kmh SSW 23.5 mph37.8 kmh 30.16 in1021.3 mb 0.01 in0.3 mm 0.06 in1.5 mm 0.01 in0.3 mm
01:50 PM 53.6°F12.0°C 47.3°F8.5°C 79% 13.0 mph SW20.9 kmh SW 16.8 mph27.0 kmh 30.17 in1021.7 mb 0.01 in0.3 mm 0.00 in0.0 mm 0.01 in0.3 mm
02:00 PM 53.4°F11.9°C 47.1°F8.4°C 79% 12.6 mph S20.3 kmh S 17.4 mph28.0 kmh 30.17 in1021.7 mb 0.02 in0.5 mm 0.01 in0.3 mm 0.02 in0.5 mm
02:10 PM 53.4°F11.9°C 47.4°F8.6°C 80% 11.3 mph SSW18.2 kmh SSW 16.8 mph27.0 kmh 30.17 in1021.7 mb 0.02 in0.5 mm 0.00 in0.0 mm 0.02 in0.5 mm
02:20 PM 53.2°F11.8°C 47.2°F8.4°C 80% 11.1 mph SW17.9 kmh SW 14.5 mph23.3 kmh 30.17 in1021.7 mb 0.04 in1.0 mm 0.12 in3.0 mm 0.04 in1.0 mm
02:30 PM 53.2°F11.8°C 47.2°F8.4°C 80% 14.8 mph S23.8 kmh S 23.5 mph37.8 kmh 30.17 in1021.7 mb 0.05 in1.3 mm 0.06 in1.5 mm 0.05 in1.3 mm
02:40 PM 53.2°F11.8°C 47.6°F8.7°C 81% 13.8 mph S22.2 kmh S 23.5 mph37.8 kmh 30.17 in1021.7 mb 0.05 in1.3 mm 0.00 in0.0 mm 0.06 in1.5 mm
02:50 PM 52.9°F11.6°C 47.2°F8.4°C 81% 13.8 mph SSW22.2 kmh SSW 23.5 mph37.8 kmh 30.17 in1021.7 mb 0.06 in1.5 mm 0.06 in1.5 mm 0.07 in1.8 mm
03:00 PM 52.9°F11.6°C 47.2°F8.4°C 81% 16.1 mph SW25.9 kmh SW 21.3 mph34.3 kmh 30.18 in1022.0 mb 0.06 in1.5 mm 0.00 in0.0 mm 0.08 in2.0 mm
03:10 PM 53.1°F11.7°C 47.7°F8.7°C 82% 15.1 mph SSW24.3 kmh SSW 20.6 mph33.2 kmh 30.18 in1022.0 mb 0.06 in1.5 mm 0.00 in0.0 mm 0.08 in2.0 mm
03:20 PM 53.1°F11.7°C 47.7°F8.7°C 82% 18.6 mph SW29.9 kmh SW 19.0 mph30.6 kmh 30.18 in1022.0 mb 0.05 in1.3 mm 0.00 in0.0 mm 0.08 in2.0 mm
03:30 PM 53.1°F11.7°C 47.7°F8.7°C 82% 19.0 mph SW30.6 kmh SW 19.0 mph30.6 kmh 30.19 in1022.4 mb 0.04 in1.0 mm 0.00 in0.0 mm 0.08 in2.0 mm
03:40 PM 53.1°F11.7°C 47.7°F8.7°C 82% 19.0 mph SW30.6 kmh SW 19.0 mph30.6 kmh 30.18 in1022.0 mb 0.02 in0.5 mm 0.00 in0.0 mm 0.08 in2.0 mm
03:50 PM 53.1°F11.7°C 47.7°F8.7°C 82% 19.0 mph SW30.6 kmh SW 19.0 mph30.6 kmh 30.19 in1022.4 mb 0.01 in0.3 mm 0.00 in0.0 mm 0.08 in2.0 mm
04:00 PM 53.1°F11.7°C 47.7°F8.7°C 82% 19.0 mph SW30.6 kmh SW 19.0 mph30.6 kmh 30.19 in1022.4 mb 0.00 in0.0 mm 0.00 in0.0 mm 0.08 in2.0 mm
04:10 PM 53.1°F11.7°C 47.7°F8.7°C 82% 19.0 mph SW30.6 kmh SW 19.0 mph30.6 kmh 30.18 in1022.0 mb 0.00 in0.0 mm 0.00 in0.0 mm 0.08 in2.0 mm
04:20 PM 53.1°F11.7°C 47.7°F8.7°C 82% 19.0 mph SW30.6 kmh SW 19.0 mph30.6 kmh 30.19 in1022.4 mb 0.00 in0.0 mm 0.00 in0.0 mm 0.08 in2.0 mm
04:30 PM 53.1°F11.7°C 47.7°F8.7°C 82% 19.0 mph SW30.6 kmh SW 19.0 mph30.6 kmh 30.19 in1022.4 mb 0.00 in0.0 mm 0.00 in0.0 mm 0.08 in2.0 mm
04:40 PM 53.1°F11.7°C 47.7°F8.7°C 82% 19.0 mph SW30.6 kmh SW 19.0 mph30.6 kmh 30.19 in1022.4 mb 0.00 in0.0 mm 0.00 in0.0 mm 0.08 in2.0 mm
04:50 PM 53.1°F11.7°C 47.7°F8.7°C 82% 19.0 mph SW30.6 kmh SW 19.0 mph30.6 kmh 30.19 in1022.4 mb 0.00 in0.0 mm 0.00 in0.0 mm 0.08 in2.0 mm
05:00 PM 53.1°F11.7°C 47.7°F8.7°C 82% 19.0 mph SW30.6 kmh SW 19.0 mph30.6 kmh 30.20 in1022.7 mb 0.00 in0.0 mm 0.00 in0.0 mm 0.08 in2.0 mm
05:10 PM 53.1°F11.7°C 47.7°F8.7°C 82% 19.0 mph SW30.6 kmh SW 19.0 mph30.6 kmh 30.19 in1022.4 mb 0.00 in0.0 mm 0.00 in0.0 mm 0.08 in2.0 mm
05:20 PM 53.1°F11.7°C 47.7°F8.7°C 82% 19.0 mph SW30.6 kmh SW 19.0 mph30.6 kmh 30.20 in1022.7 mb 0.00 in0.0 mm 0.00 in0.0 mm 0.08 in2.0 mm
05:30 PM 53.1°F11.7°C 47.7°F8.7°C 82% 19.0 mph SW30.6 kmh SW 19.0 mph30.6 kmh 30.20 in1022.7 mb 0.00 in0.0 mm 0.00 in0.0 mm 0.08 in2.0 mm
05:40 PM 53.1°F11.7°C 47.7°F8.7°C 82% 19.0 mph SW30.6 kmh SW 19.0 mph30.6 kmh 30.20 in1022.7 mb 0.00 in0.0 mm 0.00 in0.0 mm 0.08 in2.0 mm
05:50 PM 53.1°F11.7°C 47.7°F8.7°C 82% 19.0 mph SW30.6 kmh SW 19.0 mph30.6 kmh 30.20 in1022.7 mb 0.00 in0.0 mm 0.00 in0.0 mm 0.08 in2.0 mm
06:00 PM 53.2°F11.8°C 48.2°F9.0°C 83% 15.3 mph SSW24.6 kmh SSW 17.4 mph28.0 kmh 30.20 in1022.7 mb 0.00 in0.0 mm 0.00 in0.0 mm 0.08 in2.0 mm
06:10 PM 53.2°F11.8°C 48.2°F9.0°C 83% 16.8 mph SW27.0 kmh SW 17.4 mph28.0 kmh 30.20 in1022.7 mb 0.00 in0.0 mm 0.00 in0.0 mm 0.08 in2.0 mm
06:20 PM 53.2°F11.8°C 48.2°F9.0°C 83% 16.8 mph SW27.0 kmh SW 17.4 mph28.0 kmh 30.21 in1023.0 mb 0.00 in0.0 mm 0.00 in0.0 mm 0.08 in2.0 mm
06:30 PM 53.2°F11.8°C 48.2°F9.0°C 83% 16.8 mph SW27.0 kmh SW 17.4 mph28.0 kmh 30.22 in1023.4 mb 0.00 in0.0 mm 0.00 in0.0 mm 0.08 in2.0 mm
06:40 PM 53.2°F11.8°C 48.2°F9.0°C 83% 16.8 mph SW27.0 kmh SW 17.4 mph28.0 kmh 30.22 in1023.4 mb 0.00 in0.0 mm 0.00 in0.0 mm 0.08 in2.0 mm
06:50 PM 53.2°F11.8°C 48.2°F9.0°C 83% 16.8 mph SW27.0 kmh SW 17.4 mph28.0 kmh 30.22 in1023.4 mb 0.00 in0.0 mm 0.00 in0.0 mm 0.08 in2.0 mm
07:00 PM 53.2°F11.8°C 48.2°F9.0°C 83% 16.8 mph SW27.0 kmh SW 17.4 mph28.0 kmh 30.23 in1023.7 mb 0.00 in0.0 mm 0.00 in0.0 mm 0.08 in2.0 mm
07:10 PM 53.1°F11.7°C 48.0°F8.9°C 83% 3.1 mph NW5.0 kmh NW 3.1 mph5.0 kmh 30.23 in1023.7 mb 0.00 in0.0 mm 0.00 in0.0 mm 0.08 in2.0 mm
07:20 PM 53.1°F11.7°C 48.0°F8.9°C 83% 3.1 mph NW5.0 kmh NW 3.1 mph5.0 kmh 30.24 in1024.0 mb 0.00 in0.0 mm 0.00 in0.0 mm 0.08 in2.0 mm
07:30 PM 52.7°F11.5°C 47.7°F8.7°C 83% 14.5 mph SW23.3 kmh SW 16.8 mph27.0 kmh 30.24 in1024.0 mb 0.00 in0.0 mm 0.00 in0.0 mm 0.08 in2.0 mm
07:40 PM 52.7°F11.5°C 48.0°F8.9°C 84% 11.5 mph SSW18.5 kmh SSW 16.8 mph27.0 kmh 30.25 in1024.4 mb 0.01 in0.3 mm 0.06 in1.5 mm 0.09 in2.3 mm
07:50 PM 52.7°F11.5°C 48.0°F8.9°C 84% 11.0 mph SW17.7 kmh SW 13.6 mph21.9 kmh 30.25 in1024.4 mb 0.01 in0.3 mm 0.00 in0.0 mm 0.09 in2.3 mm
08:00 PM 52.5°F11.4°C 47.8°F8.8°C 84% 10.4 mph SSW16.7 kmh SSW 13.0 mph20.9 kmh 30.25 in1024.4 mb 0.01 in0.3 mm 0.00 in0.0 mm 0.09 in2.3 mm
08:10 PM 52.9°F11.6°C 48.2°F9.0°C 84% 14.4 mph S23.2 kmh S 19.0 mph30.6 kmh 30.25 in1024.4 mb 0.01 in0.3 mm 0.00 in0.0 mm 0.09 in2.3 mm
08:17 PM 32.0°F0.0°C 48.2°F9.0°C 0% Calm Calm -- 30.25 in1024.4 mb 0.01 in0.3 mm 0.00 in0.0 mm 0.07 in1.8 mm